sensor_id;sensor_type;location;lat;lon;timestamp;P1;durP1;ratioP1;P2;durP2;ratioP2
23555;SDS011;11956;53.184;8.578;2022-08-21T00:02:33;5.82;;;2.65;;
23555;SDS011;11956;53.184;8.578;2022-08-21T00:05:37;7.15;;;2.63;;
23555;SDS011;11956;53.184;8.578;2022-08-21T00:08:41;7.53;;;2.83;;
23555;SDS011;11956;53.184;8.578;2022-08-21T00:11:43;6.38;;;2.63;;
23555;SDS011;11956;53.184;8.578;2022-08-21T00:14:44;5.03;;;2.72;;
23555;SDS011;11956;53.184;8.578;2022-08-21T00:17:45;4.70;;;2.30;;
23555;SDS011;11956;53.184;8.578;2022-08-21T00:20:46;5.47;;;2.75;;
23555;SDS011;11956;53.184;8.578;2022-08-21T00:23:47;6.22;;;2.95;;
23555;SDS011;11956;53.184;8.578;2022-08-21T00:26:48;6.50;;;2.90;;
23555;SDS011;11956;53.184;8.578;2022-08-21T00:29:50;3.67;;;2.90;;
23555;SDS011;11956;53.184;8.578;2022-08-21T00:32:52;6.03;;;2.72;;
23555;SDS011;11956;53.184;8.578;2022-08-21T00:35:55;4.93;;;2.70;;
23555;SDS011;11956;53.184;8.578;2022-08-21T00:38:56;5.38;;;2.60;;
23555;SDS011;11956;53.184;8.578;2022-08-21T00:41:57;6.03;;;2.72;;
23555;SDS011;11956;53.184;8.578;2022-08-21T00:44:58;6.18;;;2.65;;
23555;SDS011;11956;53.184;8.578;2022-08-21T00:47:59;7.40;;;3.03;;
23555;SDS011;11956;53.184;8.578;2022-08-21T00:54:08;4.32;;;2.75;;
23555;SDS011;11956;53.184;8.578;2022-08-21T00:57:13;9.88;;;3.22;;
23555;SDS011;11956;53.184;8.578;2022-08-21T01:00:31;6.38;;;2.97;;
23555;SDS011;11956;53.184;8.578;2022-08-21T01:03:35;6.70;;;2.80;;
23555;SDS011;11956;53.184;8.578;2022-08-21T01:06:37;6.63;;;2.88;;
23555;SDS011;11956;53.184;8.578;2022-08-21T01:09:38;5.75;;;2.63;;
23555;SDS011;11956;53.184;8.578;2022-08-21T01:12:40;5.40;;;2.72;;
23555;SDS011;11956;53.184;8.578;2022-08-21T01:15:42;7.43;;;3.45;;
23555;SDS011;11956;53.184;8.578;2022-08-21T01:18:47;6.18;;;2.67;;
23555;SDS011;11956;53.184;8.578;2022-08-21T01:21:50;4.60;;;2.67;;
23555;SDS011;11956;53.184;8.578;2022-08-21T01:24:51;7.30;;;2.92;;
23555;SDS011;11956;53.184;8.578;2022-08-21T01:27:52;6.80;;;2.58;;
23555;SDS011;11956;53.184;8.578;2022-08-21T01:30:53;6.05;;;3.05;;
23555;SDS011;11956;53.184;8.578;2022-08-21T01:33:55;8.38;;;3.25;;
23555;SDS011;11956;53.184;8.578;2022-08-21T01:36:56;5.82;;;2.72;;
23555;SDS011;11956;53.184;8.578;2022-08-21T01:39:57;7.20;;;2.55;;
23555;SDS011;11956;53.184;8.578;2022-08-21T01:42:58;8.90;;;3.22;;
23555;SDS011;11956;53.184;8.578;2022-08-21T01:45:59;6.45;;;2.30;;
23555;SDS011;11956;53.184;8.578;2022-08-21T01:49:00;11.63;;;2.95;;
23555;SDS011;11956;53.184;8.578;2022-08-21T01:52:01;7.97;;;2.35;;
23555;SDS011;11956;53.184;8.578;2022-08-21T01:55:04;4.75;;;1.88;;
23555;SDS011;11956;53.184;8.578;2022-08-21T01:58:07;6.90;;;2.35;;
23555;SDS011;11956;53.184;8.578;2022-08-21T02:01:08;4.63;;;2.05;;
23555;SDS011;11956;53.184;8.578;2022-08-21T02:04:10;6.30;;;1.92;;
23555;SDS011;11956;53.184;8.578;2022-08-21T02:07:12;4.72;;;2.10;;
23555;SDS011;11956;53.184;8.578;2022-08-21T02:10:14;4.43;;;1.90;;
23555;SDS011;11956;53.184;8.578;2022-08-21T02:13:19;5.35;;;2.13;;
23555;SDS011;11956;53.184;8.578;2022-08-21T02:16:21;5.60;;;2.50;;
23555;SDS011;11956;53.184;8.578;2022-08-21T02:19:21;5.43;;;1.95;;
23555;SDS011;11956;53.184;8.578;2022-08-21T02:22:22;5.03;;;2.15;;
23555;SDS011;11956;53.184;8.578;2022-08-21T02:25:24;4.43;;;1.75;;
23555;SDS011;11956;53.184;8.578;2022-08-21T02:28:26;6.13;;;2.03;;
23555;SDS011;11956;53.184;8.578;2022-08-21T02:31:28;5.72;;;1.75;;
23555;SDS011;11956;53.184;8.578;2022-08-21T02:34:29;4.90;;;1.80;;
23555;SDS011;11956;53.184;8.578;2022-08-21T02:37:30;4.90;;;1.77;;
23555;SDS011;11956;53.184;8.578;2022-08-21T02:40:32;6.50;;;1.92;;
23555;SDS011;11956;53.184;8.578;2022-08-21T02:43:36;7.55;;;2.22;;
23555;SDS011;11956;53.184;8.578;2022-08-21T02:46:37;5.95;;;1.52;;
23555;SDS011;11956;53.184;8.578;2022-08-21T02:49:38;4.90;;;2.08;;
23555;SDS011;11956;53.184;8.578;2022-08-21T02:52:39;6.43;;;1.85;;
23555;SDS011;11956;53.184;8.578;2022-08-21T02:55:40;5.60;;;1.75;;
23555;SDS011;11956;53.184;8.578;2022-08-21T02:58:45;3.92;;;1.63;;
23555;SDS011;11956;53.184;8.578;2022-08-21T03:01:51;5.00;;;1.98;;
23555;SDS011;11956;53.184;8.578;2022-08-21T03:04:52;8.50;;;1.88;;
23555;SDS011;11956;53.184;8.578;2022-08-21T03:07:53;6.45;;;1.80;;
23555;SDS011;11956;53.184;8.578;2022-08-21T03:10:55;6.20;;;1.92;;
23555;SDS011;11956;53.184;8.578;2022-08-21T03:13:56;6.63;;;2.10;;
23555;SDS011;11956;53.184;8.578;2022-08-21T03:16:57;5.22;;;2.10;;
23555;SDS011;11956;53.184;8.578;2022-08-21T03:19:59;5.45;;;2.20;;
23555;SDS011;11956;53.184;8.578;2022-08-21T03:23:00;6.15;;;2.25;;
23555;SDS011;11956;53.184;8.578;2022-08-21T03:26:03;4.78;;;1.95;;
23555;SDS011;11956;53.184;8.578;2022-08-21T03:29:04;3.42;;;1.70;;
23555;SDS011;11956;53.184;8.578;2022-08-21T03:32:07;6.38;;;2.17;;
23555;SDS011;11956;53.184;8.578;2022-08-21T03:35:11;5.75;;;2.17;;
23555;SDS011;11956;53.184;8.578;2022-08-21T03:38:13;5.70;;;1.80;;
23555;SDS011;11956;53.184;8.578;2022-08-21T03:41:14;5.95;;;1.98;;
23555;SDS011;11956;53.184;8.578;2022-08-21T03:44:15;5.38;;;2.22;;
23555;SDS011;11956;53.184;8.578;2022-08-21T03:47:17;7.53;;;1.90;;
23555;SDS011;11956;53.184;8.578;2022-08-21T03:50:18;6.05;;;2.15;;
23555;SDS011;11956;53.184;8.578;2022-08-21T03:53:19;5.70;;;2.15;;
23555;SDS011;11956;53.184;8.578;2022-08-21T03:56:20;8.55;;;2.20;;
23555;SDS011;11956;53.184;8.578;2022-08-21T03:59:21;6.20;;;1.98;;
23555;SDS011;11956;53.184;8.578;2022-08-21T04:02:22;7.50;;;2.20;;
23555;SDS011;11956;53.184;8.578;2022-08-21T04:05:23;3.58;;;1.58;;
23555;SDS011;11956;53.184;8.578;2022-08-21T04:08:27;6.05;;;2.15;;
23555;SDS011;11956;53.184;8.578;2022-08-21T04:11:28;6.38;;;2.10;;
23555;SDS011;11956;53.184;8.578;2022-08-21T04:14:29;7.35;;;2.10;;
23555;SDS011;11956;53.184;8.578;2022-08-21T04:17:30;4.78;;;2.10;;
23555;SDS011;11956;53.184;8.578;2022-08-21T04:20:31;5.35;;;2.10;;
23555;SDS011;11956;53.184;8.578;2022-08-21T04:23:33;6.53;;;2.53;;
23555;SDS011;11956;53.184;8.578;2022-08-21T04:26:34;6.22;;;2.20;;
23555;SDS011;11956;53.184;8.578;2022-08-21T04:29:36;10.10;;;2.33;;
23555;SDS011;11956;53.184;8.578;2022-08-21T04:32:37;7.85;;;2.10;;
23555;SDS011;11956;53.184;8.578;2022-08-21T04:35:41;5.78;;;2.50;;
23555;SDS011;11956;53.184;8.578;2022-08-21T04:38:42;5.68;;;2.50;;
23555;SDS011;11956;53.184;8.578;2022-08-21T04:41:43;7.13;;;2.60;;
23555;SDS011;11956;53.184;8.578;2022-08-21T04:44:44;5.38;;;2.90;;
23555;SDS011;11956;53.184;8.578;2022-08-21T04:47:48;9.20;;;3.08;;
23555;SDS011;11956;53.184;8.578;2022-08-21T04:51:09;6.47;;;3.10;;
23555;SDS011;11956;53.184;8.578;2022-08-21T04:54:17;5.90;;;3.08;;
23555;SDS011;11956;53.184;8.578;2022-08-21T04:57:21;6.57;;;2.70;;
23555;SDS011;11956;53.184;8.578;2022-08-21T05:00:22;5.68;;;2.30;;
23555;SDS011;11956;53.184;8.578;2022-08-21T05:03:24;5.57;;;2.10;;
23555;SDS011;11956;53.184;8.578;2022-08-21T05:06:26;5.38;;;2.58;;
23555;SDS011;11956;53.184;8.578;2022-08-21T05:09:31;5.43;;;2.08;;
23555;SDS011;11956;53.184;8.578;2022-08-21T05:12:32;5.45;;;2.20;;
23555;SDS011;11956;53.184;8.578;2022-08-21T05:15:35;5.57;;;2.30;;
23555;SDS011;11956;53.184;8.578;2022-08-21T05:18:37;5.32;;;2.00;;
23555;SDS011;11956;53.184;8.578;2022-08-21T05:21:40;7.43;;;2.70;;
23555;SDS011;11956;53.184;8.578;2022-08-21T05:24:44;6.35;;;2.58;;
23555;SDS011;11956;53.184;8.578;2022-08-21T05:27:45;5.43;;;2.72;;
23555;SDS011;11956;53.184;8.578;2022-08-21T05:30:46;8.57;;;2.78;;
23555;SDS011;11956;53.184;8.578;2022-08-21T05:33:47;5.78;;;2.67;;
23555;SDS011;11956;53.184;8.578;2022-08-21T05:36:48;6.82;;;2.92;;
23555;SDS011;11956;53.184;8.578;2022-08-21T05:39:49;5.50;;;3.17;;
23555;SDS011;11956;53.184;8.578;2022-08-21T05:42:51;7.85;;;3.75;;
23555;SDS011;11956;53.184;8.578;2022-08-21T05:45:54;6.63;;;3.00;;
23555;SDS011;11956;53.184;8.578;2022-08-21T05:48:55;6.53;;;2.83;;
23555;SDS011;11956;53.184;8.578;2022-08-21T05:51:56;5.38;;;2.95;;
23555;SDS011;11956;53.184;8.578;2022-08-21T05:54:57;7.65;;;3.20;;
23555;SDS011;11956;53.184;8.578;2022-08-21T05:57:58;10.10;;;3.42;;
23555;SDS011;11956;53.184;8.578;2022-08-21T06:01:00;7.28;;;3.00;;
23555;SDS011;11956;53.184;8.578;2022-08-21T06:04:02;5.80;;;3.00;;
23555;SDS011;11956;53.184;8.578;2022-08-21T06:07:03;7.53;;;2.70;;
23555;SDS011;11956;53.184;8.578;2022-08-21T06:10:05;6.68;;;3.00;;
23555;SDS011;11956;53.184;8.578;2022-08-21T06:13:06;7.50;;;3.17;;
23555;SDS011;11956;53.184;8.578;2022-08-21T06:16:09;6.55;;;2.58;;
23555;SDS011;11956;53.184;8.578;2022-08-21T06:19:15;7.78;;;2.95;;
23555;SDS011;11956;53.184;8.578;2022-08-21T06:22:16;5.22;;;2.35;;
23555;SDS011;11956;53.184;8.578;2022-08-21T06:25:17;9.25;;;3.30;;
23555;SDS011;11956;53.184;8.578;2022-08-21T06:28:19;6.82;;;2.83;;
23555;SDS011;11956;53.184;8.578;2022-08-21T06:31:21;6.03;;;3.00;;
23555;SDS011;11956;53.184;8.578;2022-08-21T06:34:26;5.85;;;2.50;;
23555;SDS011;11956;53.184;8.578;2022-08-21T06:37:27;9.57;;;3.78;;
23555;SDS011;11956;53.184;8.578;2022-08-21T06:40:28;6.55;;;2.67;;
23555;SDS011;11956;53.184;8.578;2022-08-21T06:43:30;6.80;;;3.38;;
23555;SDS011;11956;53.184;8.578;2022-08-21T06:46:31;9.90;;;4.65;;
23555;SDS011;11956;53.184;8.578;2022-08-21T06:49:32;7.93;;;4.20;;
23555;SDS011;11956;53.184;8.578;2022-08-21T06:52:33;7.85;;;3.13;;
23555;SDS011;11956;53.184;8.578;2022-08-21T06:58:37;7.13;;;2.60;;
23555;SDS011;11956;53.184;8.578;2022-08-21T07:01:38;5.85;;;2.90;;
23555;SDS011;11956;53.184;8.578;2022-08-21T07:04:39;6.40;;;2.47;;
23555;SDS011;11956;53.184;8.578;2022-08-21T07:07:40;6.25;;;2.88;;
23555;SDS011;11956;53.184;8.578;2022-08-21T07:10:41;8.23;;;2.53;;
23555;SDS011;11956;53.184;8.578;2022-08-21T07:13:42;10.52;;;3.33;;
23555;SDS011;11956;53.184;8.578;2022-08-21T07:16:43;6.53;;;2.50;;
23555;SDS011;11956;53.184;8.578;2022-08-21T07:19:44;7.18;;;2.67;;
23555;SDS011;11956;53.184;8.578;2022-08-21T07:22:45;8.82;;;2.83;;
23555;SDS011;11956;53.184;8.578;2022-08-21T07:25:46;7.93;;;3.08;;
23555;SDS011;11956;53.184;8.578;2022-08-21T07:28:47;7.20;;;2.67;;
23555;SDS011;11956;53.184;8.578;2022-08-21T07:31:49;9.40;;;2.85;;
23555;SDS011;11956;53.184;8.578;2022-08-21T07:34:50;8.52;;;2.47;;
23555;SDS011;11956;53.184;8.578;2022-08-21T07:37:51;12.10;;;3.33;;
23555;SDS011;11956;53.184;8.578;2022-08-21T07:40:52;10.50;;;3.58;;
23555;SDS011;11956;53.184;8.578;2022-08-21T07:43:59;7.88;;;2.33;;
23555;SDS011;11956;53.184;8.578;2022-08-21T07:47:00;7.07;;;2.40;;
23555;SDS011;11956;53.184;8.578;2022-08-21T07:50:02;5.70;;;2.15;;
23555;SDS011;11956;53.184;8.578;2022-08-21T07:53:03;7.20;;;2.00;;
23555;SDS011;11956;53.184;8.578;2022-08-21T07:56:05;5.88;;;1.95;;
23555;SDS011;11956;53.184;8.578;2022-08-21T07:59:08;6.45;;;2.33;;
23555;SDS011;11956;53.184;8.578;2022-08-21T08:02:09;7.13;;;2.22;;
23555;SDS011;11956;53.184;8.578;2022-08-21T08:05:10;6.28;;;1.90;;
23555;SDS011;11956;53.184;8.578;2022-08-21T08:08:11;8.65;;;3.38;;
23555;SDS011;11956;53.184;8.578;2022-08-21T08:11:12;7.25;;;2.17;;
23555;SDS011;11956;53.184;8.578;2022-08-21T08:14:17;3.90;;;1.58;;
23555;SDS011;11956;53.184;8.578;2022-08-21T08:17:18;5.05;;;1.65;;
23555;SDS011;11956;53.184;8.578;2022-08-21T08:20:22;2.80;;;1.27;;
23555;SDS011;11956;53.184;8.578;2022-08-21T08:23:26;5.72;;;1.50;;
23555;SDS011;11956;53.184;8.578;2022-08-21T08:26:27;5.90;;;2.10;;
23555;SDS011;11956;53.184;8.578;2022-08-21T08:29:28;6.18;;;1.58;;
23555;SDS011;11956;53.184;8.578;2022-08-21T08:32:31;6.85;;;1.92;;
23555;SDS011;11956;53.184;8.578;2022-08-21T08:35:32;4.60;;;2.00;;
23555;SDS011;11956;53.184;8.578;2022-08-21T08:38:33;9.35;;;1.77;;
23555;SDS011;11956;53.184;8.578;2022-08-21T08:41:34;6.15;;;1.90;;
23555;SDS011;11956;53.184;8.578;2022-08-21T08:44:37;6.75;;;2.13;;
23555;SDS011;11956;53.184;8.578;2022-08-21T08:47:39;6.55;;;2.00;;
23555;SDS011;11956;53.184;8.578;2022-08-21T08:50:49;6.60;;;2.15;;
23555;SDS011;11956;53.184;8.578;2022-08-21T08:54:01;7.18;;;2.88;;
23555;SDS011;11956;53.184;8.578;2022-08-21T08:57:11;6.20;;;1.92;;
23555;SDS011;11956;53.184;8.578;2022-08-21T09:00:19;7.97;;;2.20;;
23555;SDS011;11956;53.184;8.578;2022-08-21T09:03:23;7.00;;;2.00;;
23555;SDS011;11956;53.184;8.578;2022-08-21T09:10:09;6.80;;;1.83;;
23555;SDS011;11956;53.184;8.578;2022-08-21T09:17:04;9.07;;;2.35;;
23555;SDS011;11956;53.184;8.578;2022-08-21T09:24:32;11.98;;;3.08;;
23555;SDS011;11956;53.184;8.578;2022-08-21T09:27:37;8.77;;;2.55;;
23555;SDS011;11956;53.184;8.578;2022-08-21T09:30:38;5.30;;;2.22;;
23555;SDS011;11956;53.184;8.578;2022-08-21T09:36:44;7.55;;;2.58;;
23555;SDS011;11956;53.184;8.578;2022-08-21T09:39:48;5.47;;;2.13;;
23555;SDS011;11956;53.184;8.578;2022-08-21T09:43:00;9.00;;;2.85;;
23555;SDS011;11956;53.184;8.578;2022-08-21T09:49:12;6.10;;;2.08;;
23555;SDS011;11956;53.184;8.578;2022-08-21T09:52:31;7.15;;;2.55;;
23555;SDS011;11956;53.184;8.578;2022-08-21T09:55:33;7.80;;;2.58;;
23555;SDS011;11956;53.184;8.578;2022-08-21T09:58:58;7.65;;;2.38;;
23555;SDS011;11956;53.184;8.578;2022-08-21T10:02:00;7.93;;;1.77;;
23555;SDS011;11956;53.184;8.578;2022-08-21T10:05:26;7.18;;;1.90;;
23555;SDS011;11956;53.184;8.578;2022-08-21T10:08:28;6.55;;;1.83;;
23555;SDS011;11956;53.184;8.578;2022-08-21T10:11:29;3.97;;;1.65;;
23555;SDS011;11956;53.184;8.578;2022-08-21T10:14:50;8.25;;;2.08;;
23555;SDS011;11956;53.184;8.578;2022-08-21T10:35:27;8.75;;;1.60;;
23555;SDS011;11956;53.184;8.578;2022-08-21T10:38:43;6.50;;;1.70;;
23555;SDS011;11956;53.184;8.578;2022-08-21T10:51:46;6.95;;;1.95;;
23555;SDS011;11956;53.184;8.578;2022-08-21T10:58:10;4.90;;;1.65;;
23555;SDS011;11956;53.184;8.578;2022-08-21T11:01:19;5.97;;;2.20;;
23555;SDS011;11956;53.184;8.578;2022-08-21T11:07:30;4.88;;;1.85;;
23555;SDS011;11956;53.184;8.578;2022-08-21T11:10:46;4.97;;;1.70;;
23555;SDS011;11956;53.184;8.578;2022-08-21T11:13:57;7.07;;;1.90;;
23555;SDS011;11956;53.184;8.578;2022-08-21T11:17:36;6.03;;;2.00;;
23555;SDS011;11956;53.184;8.578;2022-08-21T11:27:56;5.45;;;1.83;;
23555;SDS011;11956;53.184;8.578;2022-08-21T11:41:43;6.90;;;1.52;;
23555;SDS011;11956;53.184;8.578;2022-08-21T11:45:42;5.82;;;1.40;;
23555;SDS011;11956;53.184;8.578;2022-08-21T11:52:36;4.32;;;1.50;;
23555;SDS011;11956;53.184;8.578;2022-08-21T11:58:59;5.57;;;1.42;;
23555;SDS011;11956;53.184;8.578;2022-08-21T12:02:09;5.20;;;1.40;;
23555;SDS011;11956;53.184;8.578;2022-08-21T12:05:39;4.95;;;1.63;;
23555;SDS011;11956;53.184;8.578;2022-08-21T12:08:45;6.63;;;1.55;;
23555;SDS011;11956;53.184;8.578;2022-08-21T12:12:11;5.05;;;1.67;;
23555;SDS011;11956;53.184;8.578;2022-08-21T12:15:27;4.53;;;1.50;;
23555;SDS011;11956;53.184;8.578;2022-08-21T12:18:29;7.07;;;1.67;;
23555;SDS011;11956;53.184;8.578;2022-08-21T12:21:31;6.07;;;2.40;;
23555;SDS011;11956;53.184;8.578;2022-08-21T12:24:37;4.75;;;1.48;;
23555;SDS011;11956;53.184;8.578;2022-08-21T12:27:49;4.82;;;1.60;;
23555;SDS011;11956;53.184;8.578;2022-08-21T12:30:52;3.00;;;1.40;;
23555;SDS011;11956;53.184;8.578;2022-08-21T12:33:54;6.93;;;1.73;;
23555;SDS011;11956;53.184;8.578;2022-08-21T12:37:04;6.68;;;1.65;;
23555;SDS011;11956;53.184;8.578;2022-08-21T12:40:37;4.93;;;1.40;;
23555;SDS011;11956;53.184;8.578;2022-08-21T12:43:47;4.90;;;1.30;;
23555;SDS011;11956;53.184;8.578;2022-08-21T12:46:57;6.85;;;1.60;;
23555;SDS011;11956;53.184;8.578;2022-08-21T12:50:32;6.13;;;1.70;;
23555;SDS011;11956;53.184;8.578;2022-08-21T12:53:57;4.82;;;1.45;;
23555;SDS011;11956;53.184;8.578;2022-08-21T12:57:00;4.82;;;1.33;;
23555;SDS011;11956;53.184;8.578;2022-08-21T13:00:05;4.20;;;1.45;;
23555;SDS011;11956;53.184;8.578;2022-08-21T13:03:13;6.05;;;1.52;;
23555;SDS011;11956;53.184;8.578;2022-08-21T13:06:16;4.75;;;1.63;;
23555;SDS011;11956;53.184;8.578;2022-08-21T13:09:27;5.22;;;1.52;;
23555;SDS011;11956;53.184;8.578;2022-08-21T13:12:30;5.72;;;1.48;;
23555;SDS011;11956;53.184;8.578;2022-08-21T13:15:34;5.70;;;1.50;;
23555;SDS011;11956;53.184;8.578;2022-08-21T13:18:54;5.70;;;1.83;;
23555;SDS011;11956;53.184;8.578;2022-08-21T13:25:08;7.10;;;1.65;;
23555;SDS011;11956;53.184;8.578;2022-08-21T13:28:12;4.43;;;1.42;;
23555;SDS011;11956;53.184;8.578;2022-08-21T13:31:20;4.90;;;1.13;;
23555;SDS011;11956;53.184;8.578;2022-08-21T13:34:29;3.83;;;1.40;;
23555;SDS011;11956;53.184;8.578;2022-08-21T13:37:38;5.28;;;1.50;;
23555;SDS011;11956;53.184;8.578;2022-08-21T13:40:51;6.65;;;2.25;;
23555;SDS011;11956;53.184;8.578;2022-08-21T13:44:00;5.53;;;1.80;;
23555;SDS011;11956;53.184;8.578;2022-08-21T13:47:17;5.45;;;1.58;;
23555;SDS011;11956;53.184;8.578;2022-08-21T13:50:19;5.20;;;1.35;;
23555;SDS011;11956;53.184;8.578;2022-08-21T13:53:28;4.75;;;1.27;;
23555;SDS011;11956;53.184;8.578;2022-08-21T13:59:46;6.35;;;1.98;;
23555;SDS011;11956;53.184;8.578;2022-08-21T14:02:47;5.47;;;1.40;;
23555;SDS011;11956;53.184;8.578;2022-08-21T14:05:52;3.05;;;1.48;;
23555;SDS011;11956;53.184;8.578;2022-08-21T14:08:55;5.75;;;1.50;;
23555;SDS011;11956;53.184;8.578;2022-08-21T14:12:02;3.42;;;1.20;;
23555;SDS011;11956;53.184;8.578;2022-08-21T14:18:17;3.80;;;1.20;;
23555;SDS011;11956;53.184;8.578;2022-08-21T14:21:33;5.00;;;1.45;;
23555;SDS011;11956;53.184;8.578;2022-08-21T14:24:39;8.60;;;1.67;;
23555;SDS011;11956;53.184;8.578;2022-08-21T14:27:43;6.07;;;1.73;;
23555;SDS011;11956;53.184;8.578;2022-08-21T14:30:51;3.30;;;1.27;;
23555;SDS011;11956;53.184;8.578;2022-08-21T14:33:52;7.15;;;1.30;;
23555;SDS011;11956;53.184;8.578;2022-08-21T14:36:55;3.57;;;1.33;;
23555;SDS011;11956;53.184;8.578;2022-08-21T14:39:56;5.07;;;1.42;;
23555;SDS011;11956;53.184;8.578;2022-08-21T14:42:57;4.43;;;1.20;;
23555;SDS011;11956;53.184;8.578;2022-08-21T14:45:58;4.13;;;1.15;;
23555;SDS011;11956;53.184;8.578;2022-08-21T14:49:01;6.07;;;1.20;;
23555;SDS011;11956;53.184;8.578;2022-08-21T14:52:03;2.90;;;1.17;;
23555;SDS011;11956;53.184;8.578;2022-08-21T14:55:04;2.47;;;1.20;;
23555;SDS011;11956;53.184;8.578;2022-08-21T14:58:07;5.72;;;1.45;;
23555;SDS011;11956;53.184;8.578;2022-08-21T15:01:08;4.40;;;1.00;;
23555;SDS011;11956;53.184;8.578;2022-08-21T15:04:12;5.75;;;1.42;;
23555;SDS011;11956;53.184;8.578;2022-08-21T15:07:14;6.03;;;1.58;;
23555;SDS011;11956;53.184;8.578;2022-08-21T15:10:14;3.72;;;1.00;;
23555;SDS011;11956;53.184;8.578;2022-08-21T15:13:15;3.80;;;1.20;;
23555;SDS011;11956;53.184;8.578;2022-08-21T15:16:16;6.40;;;1.50;;
23555;SDS011;11956;53.184;8.578;2022-08-21T15:19:17;4.60;;;1.30;;
23555;SDS011;11956;53.184;8.578;2022-08-21T15:22:19;3.67;;;1.05;;
23555;SDS011;11956;53.184;8.578;2022-08-21T15:25:20;3.50;;;1.20;;
23555;SDS011;11956;53.184;8.578;2022-08-21T15:28:21;3.85;;;1.20;;
23555;SDS011;11956;53.184;8.578;2022-08-21T15:31:22;3.45;;;1.10;;
23555;SDS011;11956;53.184;8.578;2022-08-21T15:34:24;2.50;;;0.93;;
23555;SDS011;11956;53.184;8.578;2022-08-21T15:37:28;2.97;;;1.20;;
23555;SDS011;11956;53.184;8.578;2022-08-21T15:40:29;3.90;;;1.05;;
23555;SDS011;11956;53.184;8.578;2022-08-21T15:43:33;3.75;;;1.20;;
23555;SDS011;11956;53.184;8.578;2022-08-21T15:46:46;4.50;;;1.60;;
23555;SDS011;11956;53.184;8.578;2022-08-21T15:49:47;3.88;;;1.08;;
23555;SDS011;11956;53.184;8.578;2022-08-21T15:52:48;3.85;;;0.98;;
23555;SDS011;11956;53.184;8.578;2022-08-21T15:55:50;2.20;;;1.05;;
23555;SDS011;11956;53.184;8.578;2022-08-21T15:58:51;2.78;;;1.05;;
23555;SDS011;11956;53.184;8.578;2022-08-21T16:01:59;3.30;;;0.90;;
23555;SDS011;11956;53.184;8.578;2022-08-21T16:05:00;2.17;;;0.90;;
23555;SDS011;11956;53.184;8.578;2022-08-21T16:08:00;3.60;;;0.80;;
23555;SDS011;11956;53.184;8.578;2022-08-21T16:11:02;4.07;;;1.30;;
23555;SDS011;11956;53.184;8.578;2022-08-21T16:14:03;2.50;;;0.80;;
23555;SDS011;11956;53.184;8.578;2022-08-21T16:17:06;4.27;;;1.13;;
23555;SDS011;11956;53.184;8.578;2022-08-21T16:20:08;3.92;;;1.00;;
23555;SDS011;11956;53.184;8.578;2022-08-21T16:23:12;2.65;;;1.10;;
23555;SDS011;11956;53.184;8.578;2022-08-21T16:26:13;2.55;;;1.08;;
23555;SDS011;11956;53.184;8.578;2022-08-21T16:29:16;2.80;;;0.95;;
23555;SDS011;11956;53.184;8.578;2022-08-21T16:32:18;3.43;;;1.00;;
23555;SDS011;11956;53.184;8.578;2022-08-21T16:35:20;5.15;;;1.67;;
23555;SDS011;11956;53.184;8.578;2022-08-21T16:38:21;5.63;;;1.43;;
23555;SDS011;11956;53.184;8.578;2022-08-21T16:41:31;9.40;;;1.73;;
23555;SDS011;11956;53.184;8.578;2022-08-21T16:44:34;8.20;;;2.22;;
23555;SDS011;11956;53.184;8.578;2022-08-21T16:47:35;11.07;;;2.53;;
23555;SDS011;11956;53.184;8.578;2022-08-21T16:50:36;12.90;;;2.40;;
23555;SDS011;11956;53.184;8.578;2022-08-21T16:53:37;9.80;;;2.35;;
23555;SDS011;11956;53.184;8.578;2022-08-21T16:56:38;10.60;;;2.67;;
23555;SDS011;11956;53.184;8.578;2022-08-21T16:59:40;9.77;;;2.40;;
23555;SDS011;11956;53.184;8.578;2022-08-21T17:02:43;10.80;;;2.40;;
23555;SDS011;11956;53.184;8.578;2022-08-21T17:05:47;8.52;;;1.90;;
23555;SDS011;11956;53.184;8.578;2022-08-21T17:08:48;7.80;;;2.35;;
23555;SDS011;11956;53.184;8.578;2022-08-21T17:11:49;8.20;;;2.20;;
23555;SDS011;11956;53.184;8.578;2022-08-21T17:14:50;9.88;;;2.30;;
23555;SDS011;11956;53.184;8.578;2022-08-21T17:17:51;11.15;;;2.08;;
23555;SDS011;11956;53.184;8.578;2022-08-21T17:20:52;8.45;;;2.10;;
23555;SDS011;11956;53.184;8.578;2022-08-21T17:23:54;9.98;;;2.15;;
23555;SDS011;11956;53.184;8.578;2022-08-21T17:26:55;7.40;;;2.60;;
23555;SDS011;11956;53.184;8.578;2022-08-21T17:29:58;9.27;;;2.05;;
23555;SDS011;11956;53.184;8.578;2022-08-21T17:33:00;9.85;;;2.25;;
23555;SDS011;11956;53.184;8.578;2022-08-21T17:36:01;8.60;;;2.10;;
23555;SDS011;11956;53.184;8.578;2022-08-21T17:39:03;11.70;;;2.50;;
23555;SDS011;11956;53.184;8.578;2022-08-21T17:42:10;9.88;;;2.38;;
23555;SDS011;11956;53.184;8.578;2022-08-21T17:45:13;12.60;;;2.47;;
23555;SDS011;11956;53.184;8.578;2022-08-21T17:48:17;7.82;;;2.53;;
23555;SDS011;11956;53.184;8.578;2022-08-21T17:51:19;10.80;;;2.58;;
23555;SDS011;11956;53.184;8.578;2022-08-21T17:54:20;15.55;;;3.03;;
23555;SDS011;11956;53.184;8.578;2022-08-21T17:57:22;10.25;;;2.45;;
23555;SDS011;11956;53.184;8.578;2022-08-21T18:00:27;7.05;;;2.15;;
23555;SDS011;11956;53.184;8.578;2022-08-21T18:03:32;9.05;;;2.20;;
23555;SDS011;11956;53.184;8.578;2022-08-21T18:06:36;9.35;;;1.95;;
23555;SDS011;11956;53.184;8.578;2022-08-21T18:09:39;5.38;;;1.92;;
23555;SDS011;11956;53.184;8.578;2022-08-21T18:12:40;7.95;;;1.98;;
23555;SDS011;11956;53.184;8.578;2022-08-21T18:15:44;6.57;;;2.08;;
23555;SDS011;11956;53.184;8.578;2022-08-21T18:18:49;7.93;;;2.20;;
23555;SDS011;11956;53.184;8.578;2022-08-21T18:21:53;10.40;;;2.47;;
23555;SDS011;11956;53.184;8.578;2022-08-21T18:24:55;8.18;;;1.75;;
23555;SDS011;11956;53.184;8.578;2022-08-21T18:27:56;8.32;;;1.90;;
23555;SDS011;11956;53.184;8.578;2022-08-21T18:31:03;6.47;;;1.98;;
23555;SDS011;11956;53.184;8.578;2022-08-21T18:34:10;11.05;;;2.28;;
23555;SDS011;11956;53.184;8.578;2022-08-21T18:37:27;10.73;;;2.40;;
23555;SDS011;11956;53.184;8.578;2022-08-21T18:40:29;8.70;;;1.98;;
23555;SDS011;11956;53.184;8.578;2022-08-21T18:43:32;10.85;;;2.58;;
23555;SDS011;11956;53.184;8.578;2022-08-21T18:46:32;11.73;;;2.55;;
23555;SDS011;11956;53.184;8.578;2022-08-21T18:49:33;12.98;;;2.88;;
23555;SDS011;11956;53.184;8.578;2022-08-21T18:52:34;9.75;;;2.38;;
23555;SDS011;11956;53.184;8.578;2022-08-21T18:55:35;10.05;;;2.33;;
23555;SDS011;11956;53.184;8.578;2022-08-21T18:58:41;12.85;;;2.20;;
23555;SDS011;11956;53.184;8.578;2022-08-21T19:01:43;6.93;;;1.85;;
23555;SDS011;11956;53.184;8.578;2022-08-21T19:04:44;11.98;;;2.97;;
23555;SDS011;11956;53.184;8.578;2022-08-21T19:07:46;7.30;;;1.92;;
23555;SDS011;11956;53.184;8.578;2022-08-21T19:10:49;10.30;;;2.45;;
23555;SDS011;11956;53.184;8.578;2022-08-21T19:13:55;14.60;;;2.70;;
23555;SDS011;11956;53.184;8.578;2022-08-21T19:16:56;10.65;;;2.45;;
23555;SDS011;11956;53.184;8.578;2022-08-21T19:19:58;7.35;;;1.98;;
23555;SDS011;11956;53.184;8.578;2022-08-21T19:23:06;8.45;;;2.20;;
23555;SDS011;11956;53.184;8.578;2022-08-21T19:26:10;10.40;;;2.22;;
23555;SDS011;11956;53.184;8.578;2022-08-21T19:29:11;10.07;;;1.95;;
23555;SDS011;11956;53.184;8.578;2022-08-21T19:32:17;9.75;;;2.22;;
23555;SDS011;11956;53.184;8.578;2022-08-21T19:35:18;10.07;;;2.47;;
23555;SDS011;11956;53.184;8.578;2022-08-21T19:38:19;10.88;;;2.53;;
23555;SDS011;11956;53.184;8.578;2022-08-21T19:41:21;7.97;;;2.28;;
23555;SDS011;11956;53.184;8.578;2022-08-21T19:44:27;7.95;;;2.83;;
23555;SDS011;11956;53.184;8.578;2022-08-21T19:47:30;9.23;;;2.37;;
23555;SDS011;11956;53.184;8.578;2022-08-21T19:50:31;9.98;;;2.25;;
23555;SDS011;11956;53.184;8.578;2022-08-21T19:53:32;7.18;;;1.67;;
23555;SDS011;11956;53.184;8.578;2022-08-21T19:56:33;9.27;;;2.28;;
23555;SDS011;11956;53.184;8.578;2022-08-21T19:59:34;8.23;;;2.25;;